Time;durP1;ratioP1;P1;durP2;ratioP2;P2;SDS_P1;SDS_P2;PMS_P1;PMS_P2;Temp;Humidity;BMP_temperature;BMP_pressure;BME280_temperature;BME280_humidity;BME280_pressure;Samples;Min_cycle;Max_cycle;Signal;HPM_P1;HPM_P2
2021/08/22 00:00:28;;;;;;;12.30;11.10;;;20.10;99.90;;;;;;5030243;28;20029;-42
2021/08/22 00:02:54;;;;;;;12.48;11.23;;;20.00;99.90;;;;;;5030008;28;20028;-42
2021/08/22 00:05:20;;;;;;;12.48;11.18;;;20.00;99.90;;;;;;5030422;28;20017;-39
2021/08/22 00:07:46;;;;;;;10.75;9.65;;;20.00;99.90;;;;;;5030023;28;20440;-40
2021/08/22 00:10:12;;;;;;;15.80;14.25;;;20.00;99.90;;;;;;5030765;28;20025;-44
2021/08/22 00:12:38;;;;;;;15.15;13.55;;;19.90;99.90;;;;;;5029221;28;20370;-42
2021/08/22 00:15:05;;;;;;;14.35;12.95;;;19.80;99.90;;;;;;5029432;28;20048;-39
2021/08/22 00:17:30;;;;;;;15.27;13.68;;;19.80;99.90;;;;;;5030362;28;20075;-41
2021/08/22 00:19:56;;;;;;;13.73;12.30;;;19.80;99.90;;;;;;5028913;28;20026;-39
2021/08/22 00:22:22;;;;;;;11.93;10.73;;;19.80;99.90;;;;;;5030325;28;20036;-38
2021/08/22 00:24:50;;;;;;;11.55;10.45;;;19.90;99.90;;;;;;5028245;28;20080;-40
2021/08/22 00:27:16;;;;;;;11.98;10.77;;;19.90;99.90;;;;;;5010192;28;20474;-41
2021/08/22 00:29:41;;;;;;;11.73;10.55;;;19.90;99.90;;;;;;5022148;28;20048;-42
2021/08/22 00:32:07;;;;;;;12.10;10.90;;;19.90;99.90;;;;;;5029020;28;20457;-41
2021/08/22 00:34:33;;;;;;;12.35;11.05;;;19.90;99.90;;;;;;5029970;28;20475;-37
2021/08/22 00:36:59;;;;;;;11.20;9.98;;;19.90;99.90;;;;;;5028840;28;20037;-39
2021/08/22 00:39:25;;;;;;;10.32;9.25;;;19.90;99.90;;;;;;5028954;28;20025;-42
2021/08/22 00:41:51;;;;;;;10.88;9.77;;;19.90;99.90;;;;;;5029255;28;20481;-41
2021/08/22 00:44:17;;;;;;;12.13;10.93;;;20.00;99.90;;;;;;5029060;28;20029;-42
2021/08/22 00:46:42;;;;;;;12.93;11.63;;;20.00;99.90;;;;;;5028916;28;20071;-42
2021/08/22 00:49:10;;;;;;;12.63;11.43;;;20.00;99.90;;;;;;5028668;28;20022;-38
2021/08/22 00:51:36;;;;;;;12.52;11.32;;;20.00;99.90;;;;;;5029380;28;20025;-41
2021/08/22 00:54:02;;;;;;;13.20;11.88;;;20.10;99.90;;;;;;5028799;28;20112;-43
2021/08/22 00:56:30;;;;;;;13.18;11.88;;;20.00;99.90;;;;;;5025847;28;20120;-43
2021/08/22 00:58:55;;;;;;;13.80;12.38;;;20.00;99.90;;;;;;5029200;28;20026;-41
2021/08/22 01:01:24;;;;;;;12.70;11.48;;;20.00;99.90;;;;;;5028041;28;20094;-40
2021/08/22 01:03:59;;;;;;;12.88;11.57;;;20.10;99.90;;;;;;5028615;28;20159;-42
2021/08/22 01:06:43;;;;;;;12.93;11.70;;;20.10;99.90;;;;;;5028776;28;20185;-42
2021/08/22 01:09:19;;;;;;;13.38;11.98;;;20.10;99.90;;;;;;5028659;28;20029;-41
2021/08/22 01:11:45;;;;;;;13.98;12.57;;;20.10;99.90;;;;;;5029074;28;20079;-37
2021/08/22 01:14:14;;;;;;;15.38;13.88;;;20.10;99.90;;;;;;5028416;28;20120;-39
2021/08/22 01:16:52;;;;;;;14.98;13.48;;;20.10;99.90;;;;;;5028934;28;20038;-42
2021/08/22 01:19:26;;;;;;;13.38;12.07;;;20.10;99.90;;;;;;5028798;28;20022;-39
2021/08/22 01:21:53;;;;;;;13.52;12.18;;;20.10;99.90;;;;;;5025987;28;20029;-42
2021/08/22 01:24:22;;;;;;;13.05;11.80;;;20.00;99.90;;;;;;5029114;28;20013;-39
2021/08/22 01:26:50;;;;;;;11.60;10.40;;;19.90;99.90;;;;;;5027844;28;20508;-41
2021/08/22 01:29:17;;;;;;;11.57;10.48;;;19.90;99.90;;;;;;5028247;28;20108;-43
2021/08/22 01:31:47;;;;;;;10.93;9.82;;;19.90;99.90;;;;;;5029169;28;20030;-38
2021/08/22 01:34:14;;;;;;;9.90;9.00;;;19.90;99.90;;;;;;5029028;28;20076;-41
2021/08/22 01:36:41;;;;;;;10.65;9.55;;;19.80;99.90;;;;;;5028160;28;20050;-41
2021/08/22 01:39:08;;;;;;;9.60;8.68;;;19.80;99.90;;;;;;5029105;28;20053;-42
2021/08/22 01:41:34;;;;;;;9.45;8.25;;;19.80;99.90;;;;;;5033155;28;20112;-42
2021/08/22 01:44:00;;;;;;;8.70;7.90;;;19.90;99.90;;;;;;5031553;28;20041;-43
2021/08/22 01:46:34;;;;;;;8.30;7.60;;;19.80;99.90;;;;;;5032441;28;20025;-41
2021/08/22 01:49:05;;;;;;;7.60;6.88;;;19.80;99.90;;;;;;5032608;28;20066;-39
2021/08/22 01:51:32;;;;;;;8.75;7.95;;;19.80;99.90;;;;;;5031499;28;20071;-42
2021/08/22 01:53:59;;;;;;;9.63;8.73;;;19.80;99.90;;;;;;5032018;28;20091;-43
2021/08/22 01:56:27;;;;;;;11.43;9.35;;;19.80;99.90;;;;;;5032521;28;20045;-41
2021/08/22 01:58:53;;;;;;;9.50;8.52;;;19.80;99.90;;;;;;5031870;28;20021;-39
2021/08/22 02:01:18;;;;;;;10.25;9.25;;;19.70;99.90;;;;;;5032142;28;20025;-36
2021/08/22 02:03:54;;;;;;;12.15;10.95;;;19.70;99.90;;;;;;5032134;28;20029;-41
2021/08/22 02:06:48;;;;;;;11.88;10.68;;;19.70;99.90;;;;;;5032306;28;20021;-41
2021/08/22 02:09:19;;;;;;;11.32;10.30;;;19.60;99.90;;;;;;5030737;28;20025;-43
2021/08/22 02:11:50;;;;;;;11.63;10.43;;;19.60;99.90;;;;;;5031571;28;20433;-42
2021/08/22 02:14:19;;;;;;;11.63;10.52;;;19.60;99.90;;;;;;5031566;28;20318;-40
2021/08/22 02:16:48;;;;;;;11.23;10.13;;;19.60;99.90;;;;;;5031650;28;20029;-38
2021/08/22 02:19:14;;;;;;;12.63;11.32;;;19.70;99.90;;;;;;5028286;28;20022;-41
2021/08/22 02:21:40;;;;;;;11.57;10.35;;;19.70;99.90;;;;;;5032493;28;20061;-39
2021/08/22 02:24:07;;;;;;;10.93;9.82;;;19.70;99.90;;;;;;5031787;28;20375;-42
2021/08/22 02:26:34;;;;;;;10.02;9.05;;;19.70;99.90;;;;;;5031189;28;20028;-40
2021/08/22 02:29:00;;;;;;;10.65;9.57;;;19.70;99.90;;;;;;5031811;28;20091;-40
2021/08/22 02:31:27;;;;;;;12.25;10.95;;;19.70;99.90;;;;;;5031388;28;20013;-44
2021/08/22 02:33:53;;;;;;;12.75;11.45;;;19.70;99.90;;;;;;5031361;28;20044;-42
2021/08/22 02:36:19;;;;;;;13.32;11.95;;;19.70;99.90;;;;;;5031588;28;20478;-43
2021/08/22 02:38:45;;;;;;;14.27;12.77;;;19.60;99.90;;;;;;5029975;28;20048;-41
2021/08/22 02:41:11;;;;;;;14.60;13.10;;;19.60;99.90;;;;;;5032025;28;20108;-39
2021/08/22 02:43:38;;;;;;;14.23;12.82;;;19.60;99.90;;;;;;5031713;28;20462;-40
2021/08/22 02:46:03;;;;;;;12.93;11.73;;;19.50;99.90;;;;;;5031082;28;20112;-39
2021/08/22 02:48:29;;;;;;;13.70;12.30;;;19.40;99.90;;;;;;5031429;28;20564;-42
2021/08/22 02:50:54;;;;;;;14.68;13.18;;;19.40;99.90;;;;;;5030800;28;20026;-40
2021/08/22 02:53:20;;;;;;;14.38;12.98;;;19.40;99.90;;;;;;5030693;28;20036;-41
2021/08/22 02:55:45;;;;;;;12.60;11.25;;;19.40;99.90;;;;;;5030335;28;20076;-37
2021/08/22 02:58:11;;;;;;;12.18;10.95;;;19.40;99.90;;;;;;5031038;28;20318;-40
2021/08/22 03:00:37;;;;;;;12.90;11.23;;;19.40;99.90;;;;;;5030434;28;20091;-43
2021/08/22 03:03:02;;;;;;;11.88;10.68;;;19.50;99.90;;;;;;5031087;28;20021;-43
2021/08/22 03:05:28;;;;;;;11.43;10.32;;;19.50;99.90;;;;;;5031046;28;20021;-43
2021/08/22 03:07:53;;;;;;;10.52;9.52;;;19.50;99.90;;;;;;5030020;28;20037;-40
2021/08/22 03:10:19;;;;;;;10.10;9.15;;;19.40;99.90;;;;;;5031140;28;20040;-40
2021/08/22 03:12:45;;;;;;;10.80;9.77;;;19.40;99.90;;;;;;5030452;28;20041;-40
2021/08/22 03:15:11;;;;;;;11.18;10.07;;;19.40;99.90;;;;;;5030171;28;20378;-41
2021/08/22 03:17:37;;;;;;;11.10;10.05;;;19.40;99.90;;;;;;5030788;28;20504;-37
2021/08/22 03:20:04;;;;;;;12.68;9.70;;;19.40;99.90;;;;;;5030620;28;20020;-41
2021/08/22 03:22:31;;;;;;;11.27;10.05;;;19.40;99.90;;;;;;5030613;28;20389;-39
2021/08/22 03:24:57;;;;;;;12.25;11.02;;;19.40;99.90;;;;;;5030705;28;20456;-41
2021/08/22 03:27:22;;;;;;;9.80;8.90;;;19.40;99.90;;;;;;5030947;28;20025;-41
2021/08/22 03:29:48;;;;;;;11.25;10.10;;;19.40;99.90;;;;;;5030113;28;20028;-43
2021/08/22 03:32:13;;;;;;;12.02;10.82;;;19.50;99.90;;;;;;5031474;28;20075;-42
2021/08/22 03:34:39;;;;;;;11.40;10.27;;;19.50;99.90;;;;;;5030521;28;20429;-40
2021/08/22 03:37:05;;;;;;;11.95;10.75;;;19.50;99.90;;;;;;5030086;28;20567;-42
2021/08/22 03:39:31;;;;;;;12.25;11.00;;;19.50;99.90;;;;;;5030196;28;20418;-39
2021/08/22 03:41:56;;;;;;;11.93;10.73;;;19.50;99.90;;;;;;5029470;28;20033;-42
2021/08/22 03:44:23;;;;;;;13.90;11.32;;;19.50;99.90;;;;;;5031003;28;20115;-42
2021/08/22 03:46:48;;;;;;;11.15;10.05;;;19.50;99.90;;;;;;5029854;28;20021;-42
2021/08/22 03:49:14;;;;;;;13.30;10.50;;;19.50;99.90;;;;;;5030347;28;20040;-40
2021/08/22 03:51:39;;;;;;;12.82;10.77;;;19.50;99.90;;;;;;5029963;28;20029;-42
2021/08/22 03:54:05;;;;;;;14.45;11.77;;;19.40;99.90;;;;;;5030156;28;20360;-43
2021/08/22 03:56:30;;;;;;;13.60;11.73;;;19.40;99.90;;;;;;5029078;28;20038;-42
2021/08/22 03:58:56;;;;;;;13.05;11.25;;;19.40;99.90;;;;;;5029988;28;20457;-41
2021/08/22 04:01:22;;;;;;;14.10;12.60;;;19.40;99.90;;;;;;5030288;28;20109;-43
2021/08/22 04:03:47;;;;;;;14.00;12.43;;;19.40;99.90;;;;;;5027150;28;20079;-40
2021/08/22 04:06:13;;;;;;;13.68;12.20;;;19.40;99.90;;;;;;5029906;28;20064;-43
2021/08/22 04:08:39;;;;;;;15.82;12.05;;;19.40;99.90;;;;;;5029865;28;20048;-41
2021/08/22 04:11:05;;;;;;;15.23;12.18;;;19.40;99.90;;;;;;5029107;28;20018;-44
2021/08/22 04:13:31;;;;;;;15.88;13.48;;;19.40;99.90;;;;;;5029915;28;20074;-40
2021/08/22 04:15:57;;;;;;;15.70;13.52;;;19.40;99.90;;;;;;5028935;28;20057;-40
2021/08/22 04:18:22;;;;;;;19.70;14.68;;;19.30;99.90;;;;;;5029530;28;20017;-43
2021/08/22 04:20:48;;;;;;;17.38;13.77;;;19.30;99.90;;;;;;5029242;28;20458;-41
2021/08/22 04:23:13;;;;;;;18.40;13.65;;;19.30;99.90;;;;;;5029596;28;20013;-41
2021/08/22 04:25:41;;;;;;;18.13;15.25;;;19.30;99.90;;;;;;5028838;28;20021;-41
2021/08/22 04:28:07;;;;;;;13.13;11.70;;;19.40;99.90;;;;;;5028088;28;20026;-43
2021/08/22 04:30:33;;;;;;;17.48;13.73;;;19.30;99.90;;;;;;5029692;28;20024;-42
2021/08/22 04:32:58;;;;;;;21.75;18.15;;;19.30;99.90;;;;;;5028408;28;20080;-41
2021/08/22 04:35:24;;;;;;;23.30;20.20;;;19.20;99.90;;;;;;5029338;28;20432;-41
2021/08/22 04:37:49;;;;;;;18.80;16.00;;;19.10;99.90;;;;;;5028529;28;20473;-41
2021/08/22 04:40:15;;;;;;;20.30;16.92;;;19.00;99.90;;;;;;5028854;28;20506;-41
2021/08/22 04:42:40;;;;;;;24.60;18.77;;;18.90;99.90;;;;;;5028910;28;20061;-42
2021/08/22 04:45:06;;;;;;;24.10;17.67;;;18.90;99.90;;;;;;5028768;28;20061;-43
2021/08/22 04:47:32;;;;;;;22.30;18.50;;;18.80;99.90;;;;;;5029314;28;20132;-42
2021/08/22 04:49:57;;;;;;;16.00;14.30;;;18.80;99.90;;;;;;5028729;28;20136;-44
2021/08/22 04:52:23;;;;;;;22.63;18.20;;;18.80;99.90;;;;;;5028476;28;20025;-39
2021/08/22 04:54:48;;;;;;;21.35;17.60;;;18.80;99.90;;;;;;5028337;28;20120;-43
2021/08/22 04:57:14;;;;;;;22.90;19.33;;;18.80;99.90;;;;;;5029101;28;20097;-41
2021/08/22 04:59:40;;;;;;;26.17;19.90;;;18.80;99.90;;;;;;5028301;28;20022;-42
2021/08/22 05:02:05;;;;;;;23.30;18.95;;;18.80;99.90;;;;;;5029677;28;20112;-43
2021/08/22 05:04:32;;;;;;;22.75;19.33;;;18.80;99.90;;;;;;5028839;28;20014;-44
2021/08/22 05:06:57;;;;;;;23.20;17.27;;;18.70;99.90;;;;;;5027820;28;20033;-44
2021/08/22 05:09:23;;;;;;;27.90;20.75;;;18.80;99.90;;;;;;5028693;28;20022;-42
2021/08/22 05:11:49;;;;;;;21.77;16.67;;;18.70;99.90;;;;;;5028815;28;20436;-41
2021/08/22 05:14:14;;;;;;;19.50;15.68;;;18.80;99.90;;;;;;5027708;28;20037;-38
2021/08/22 05:16:41;;;;;;;20.67;17.13;;;18.80;99.90;;;;;;5028295;28;20037;-42
2021/08/22 05:19:07;;;;;;;22.13;16.23;;;18.80;99.90;;;;;;5028735;28;20135;-43
2021/08/22 05:21:32;;;;;;;18.25;15.07;;;18.90;99.90;;;;;;5028233;28;20552;-40
2021/08/22 05:23:58;;;;;;;21.98;17.15;;;18.90;99.90;;;;;;5028329;28;20077;-41
2021/08/22 05:26:23;;;;;;;21.98;17.50;;;18.90;99.90;;;;;;5029409;28;20052;-43
2021/08/22 05:28:49;;;;;;;19.38;16.33;;;19.00;99.90;;;;;;5027819;28;20017;-41
2021/08/22 05:31:14;;;;;;;22.40;16.63;;;19.00;99.90;;;;;;5028805;28;20432;-39
2021/08/22 05:33:40;;;;;;;24.88;18.75;;;19.00;99.90;;;;;;5029028;28;20021;-40
2021/08/22 05:36:20;;;;;;;23.38;18.67;;;19.10;99.90;;;;;;5027833;28;20033;-42
2021/08/22 05:38:47;;;;;;;26.48;19.40;;;19.10;99.90;;;;;;5027894;28;20044;-39
2021/08/22 05:41:13;;;;;;;19.33;16.70;;;19.20;99.90;;;;;;5029007;28;20032;-41
2021/08/22 05:43:39;;;;;;;25.98;19.30;;;19.20;99.90;;;;;;5028393;28;20096;-40
2021/08/22 05:46:05;;;;;;;24.83;22.05;;;19.20;99.90;;;;;;5028807;28;20168;-41
2021/08/22 05:48:32;;;;;;;33.45;23.83;;;19.30;99.90;;;;;;5028682;28;20496;-38
2021/08/22 05:50:58;;;;;;;30.17;23.70;;;19.30;99.90;;;;;;5027104;28;20025;-42
2021/08/22 05:53:23;;;;;;;30.65;24.83;;;19.30;99.90;;;;;;5028451;28;20433;-42
2021/08/22 05:55:49;;;;;;;26.80;22.80;;;19.30;99.90;;;;;;5027285;28;20033;-44
2021/08/22 05:58:14;;;;;;;29.77;23.58;;;19.20;99.90;;;;;;5029076;28;20537;-40
2021/08/22 06:00:40;;;;;;;28.15;22.95;;;19.30;99.90;;;;;;5028227;28;20078;-41
2021/08/22 06:03:05;;;;;;;28.55;24.10;;;19.30;99.90;;;;;;5028288;28;20500;-40
2021/08/22 06:05:31;;;;;;;27.30;21.48;;;19.30;99.90;;;;;;5027927;28;20029;-39
2021/08/22 06:07:57;;;;;;;30.65;21.05;;;19.40;99.90;;;;;;5027540;28;20460;-43
2021/08/22 06:10:22;;;;;;;27.63;21.65;;;19.40;99.90;;;;;;5028588;28;20021;-42
2021/08/22 06:12:48;;;;;;;33.78;26.65;;;19.50;99.90;;;;;;5033603;28;20021;-42
2021/08/22 06:15:14;;;;;;;33.38;25.92;;;19.50;99.90;;;;;;5028713;28;20100;-42
2021/08/22 06:17:39;;;;;;;31.70;24.63;;;19.50;99.90;;;;;;5025341;28;20041;-44
2021/08/22 06:20:05;;;;;;;28.50;21.85;;;19.50;99.90;;;;;;5026557;28;20774;-43
2021/08/22 06:22:31;;;;;;;25.13;21.20;;;19.60;99.90;;;;;;5027297;28;20100;-43
2021/08/22 06:24:57;;;;;;;29.73;23.55;;;19.60;99.90;;;;;;5027045;28;20392;-41
2021/08/22 06:27:23;;;;;;;30.60;25.15;;;19.70;99.90;;;;;;5029891;28;20029;-43
2021/08/22 06:29:48;;;;;;;28.83;22.95;;;19.80;99.90;;;;;;5031051;28;20108;-43
2021/08/22 06:32:14;;;;;;;25.48;21.02;;;19.80;99.90;;;;;;5030875;28;20036;-43
2021/08/22 06:34:39;;;;;;;28.13;21.73;;;19.80;99.90;;;;;;5030764;28;20112;-43
2021/08/22 06:37:05;;;;;;;26.30;21.00;;;19.80;99.90;;;;;;5034083;28;20316;-37
2021/08/22 06:39:32;;;;;;;28.45;21.67;;;19.80;99.90;;;;;;5031811;28;20025;-43
2021/08/22 06:41:58;;;;;;;26.27;19.50;;;19.70;99.90;;;;;;5030091;28;20033;-42
2021/08/22 06:44:23;;;;;;;26.88;21.70;;;19.70;99.90;;;;;;5030874;28;20366;-42
2021/08/22 06:46:49;;;;;;;26.45;20.02;;;19.70;99.90;;;;;;5029040;28;20024;-42
2021/08/22 06:49:15;;;;;;;20.90;18.50;;;19.70;99.90;;;;;;5030557;28;20420;-42
2021/08/22 06:51:40;;;;;;;26.67;20.60;;;19.70;99.90;;;;;;5029861;28;20033;-41
2021/08/22 06:54:06;;;;;;;26.52;19.52;;;19.80;99.90;;;;;;5030624;28;20508;-40
2021/08/22 06:56:32;;;;;;;19.30;16.55;;;19.80;99.90;;;;;;5030446;28;20620;-39
2021/08/22 06:58:57;;;;;;;20.48;17.10;;;19.90;99.90;;;;;;5029621;28;20018;-43
2021/08/22 07:01:23;;;;;;;18.50;15.13;;;19.90;99.90;;;;;;5030495;28;20382;-42
2021/08/22 07:03:49;;;;;;;20.27;16.35;;;19.90;99.90;;;;;;5029596;28;20090;-43
2021/08/22 07:06:15;;;;;;;25.05;19.23;;;19.90;99.90;;;;;;5029675;28;20052;-42
2021/08/22 07:08:41;;;;;;;22.15;18.27;;;19.80;99.90;;;;;;5029772;28;20017;-41
2021/08/22 07:11:06;;;;;;;23.60;19.70;;;19.80;99.90;;;;;;5030661;28;20030;-42
2021/08/22 07:13:33;;;;;;;22.15;18.55;;;19.80;99.90;;;;;;5029347;28;20021;-38
2021/08/22 07:15:58;;;;;;;24.20;19.98;;;19.80;99.90;;;;;;5029792;28;20049;-43
2021/08/22 07:18:24;;;;;;;26.92;21.77;;;19.70;99.90;;;;;;5029854;28;20020;-42
2021/08/22 07:20:49;;;;;;;28.63;21.48;;;19.70;99.90;;;;;;5028483;28;20077;-39
2021/08/22 07:23:15;;;;;;;29.50;22.40;;;19.60;99.90;;;;;;5030361;28;20028;-42
2021/08/22 07:25:41;;;;;;;28.73;24.48;;;19.60;99.90;;;;;;5029929;28;20036;-39
2021/08/22 07:28:07;;;;;;;27.63;21.23;;;19.60;99.90;;;;;;5029105;28;20505;-42
2021/08/22 07:30:32;;;;;;;24.88;21.10;;;19.60;99.90;;;;;;5029621;28;20026;-43
2021/08/22 07:33:01;;;;;;;24.80;20.13;;;19.60;99.90;;;;;;5028931;28;20013;-40
2021/08/22 07:35:26;;;;;;;25.42;21.08;;;19.60;99.90;;;;;;5029520;28;20481;-40
2021/08/22 07:37:52;;;;;;;24.48;21.33;;;19.60;99.90;;;;;;5029166;28;20021;-43
2021/08/22 07:40:17;;;;;;;22.63;19.52;;;19.70;99.90;;;;;;5034578;28;20038;-42
2021/08/22 07:42:43;;;;;;;23.83;20.55;;;19.70;99.90;;;;;;5034297;28;20018;-40
2021/08/22 07:45:09;;;;;;;20.85;18.10;;;19.70;99.90;;;;;;5039005;28;20105;-43
2021/08/22 07:47:37;;;;;;;25.50;20.50;;;19.70;99.90;;;;;;5027239;28;20022;-40
2021/08/22 07:50:03;;;;;;;20.73;18.50;;;19.70;99.90;;;;;;5028325;28;20026;-40
2021/08/22 07:52:29;;;;;;;21.63;19.27;;;19.80;99.90;;;;;;5030276;28;20525;-38
2021/08/22 07:54:54;;;;;;;20.15;17.27;;;19.80;99.90;;;;;;5028726;28;20030;-38
2021/08/22 07:57:20;;;;;;;19.48;16.52;;;19.90;99.90;;;;;;5029725;28;20033;-44
2021/08/22 07:59:45;;;;;;;16.38;13.55;;;20.00;99.90;;;;;;5029468;28;20021;-36
2021/08/22 08:02:11;;;;;;;18.80;16.73;;;20.10;99.90;;;;;;5030132;28;20020;-41
2021/08/22 08:04:37;;;;;;;19.65;16.17;;;20.20;99.90;;;;;;5029881;28;20030;-38
2021/08/22 08:07:05;;;;;;;19.33;15.63;;;20.20;99.90;;;;;;5029739;28;20544;-43
2021/08/22 08:09:31;;;;;;;18.40;15.00;;;20.30;99.90;;;;;;5029291;28;20033;-42
2021/08/22 08:11:57;;;;;;;15.18;13.65;;;20.40;99.90;;;;;;5029504;28;20068;-42
2021/08/22 08:14:26;;;;;;;18.58;15.25;;;20.60;99.90;;;;;;5029914;28;20045;-43
2021/08/22 08:16:51;;;;;;;18.02;14.93;;;20.70;99.90;;;;;;5027470;28;20057;-40
2021/08/22 08:19:17;;;;;;;18.23;13.40;;;20.80;99.90;;;;;;5029488;28;20060;-41
2021/08/22 08:21:45;;;;;;;18.48;14.98;;;20.80;99.90;;;;;;5029335;28;20549;-41
2021/08/22 08:24:10;;;;;;;15.25;13.52;;;20.90;99.90;;;;;;5028883;28;20081;-40
2021/08/22 08:26:36;;;;;;;16.17;14.45;;;20.90;99.90;;;;;;5029082;28;20397;-41
2021/08/22 08:29:02;;;;;;;13.75;12.10;;;21.00;99.90;;;;;;5039797;28;20116;-39
2021/08/22 08:31:27;;;;;;;14.38;12.23;;;20.90;99.90;;;;;;5028917;28;20033;-42
2021/08/22 08:33:53;;;;;;;17.23;15.07;;;20.90;99.90;;;;;;5034197;28;20029;-42
2021/08/22 08:36:19;;;;;;;15.15;13.07;;;20.90;99.90;;;;;;5032796;28;20033;-41
2021/08/22 08:38:44;;;;;;;15.25;13.60;;;20.90;99.90;;;;;;5032749;28;20025;-42
2021/08/22 08:41:10;;;;;;;12.98;11.63;;;20.90;99.90;;;;;;5033852;28;20029;-40
2021/08/22 08:43:35;;;;;;;13.80;12.35;;;20.80;99.90;;;;;;5028948;28;20393;-40
2021/08/22 08:46:09;;;;;;;15.48;11.95;;;20.80;99.90;;;;;;5028260;28;20429;-42
2021/08/22 08:49:02;;;;;;;16.02;13.52;;;20.80;99.90;;;;;;5028714;28;20033;-41
2021/08/22 08:51:42;;;;;;;;;;;20.80;99.90;;;;;;5028811;28;20215;-42
2021/08/22 08:54:44;;;;;;;14.68;12.93;;;20.80;99.90;;;;;;5028489;28;20360;-40
2021/08/22 08:57:10;;;;;;;16.05;14.35;;;20.80;99.90;;;;;;5025239;28;20026;-39
2021/08/22 08:59:37;;;;;;;18.85;15.77;;;20.80;99.90;;;;;;5027721;28;20048;-41
2021/08/22 09:02:02;;;;;;;17.48;15.35;;;20.80;99.90;;;;;;5028137;28;20080;-41
2021/08/22 09:04:47;;;;;;;17.55;15.85;;;20.90;99.90;;;;;;5029415;28;20030;-40
2021/08/22 09:07:33;;;;;;;16.20;14.45;;;21.00;99.90;;;;;;5028387;28;20032;-42
2021/08/22 09:10:04;;;;;;;15.27;13.35;;;21.20;99.90;;;;;;5009038;28;20073;-40
2021/08/22 09:13:03;;;;;;;16.77;14.60;;;21.30;99.90;;;;;;5025518;28;20025;-40
2021/08/22 09:16:11;;;;;;;15.80;13.45;;;21.50;99.90;;;;;;5029128;28;20060;-42
2021/08/22 09:19:14;;;;;;;13.88;12.18;;;21.70;99.90;;;;;;5018471;28;20037;-40
2021/08/22 09:22:18;;;;;;;14.10;12.75;;;21.90;99.90;;;;;;5027899;28;20025;-41
2021/08/22 09:25:28;;;;;;;14.32;12.73;;;22.00;99.90;;;;;;5027320;28;20041;-41
2021/08/22 09:28:25;;;;;;;13.68;12.23;;;22.10;99.90;;;;;;5027253;28;20021;-42
2021/08/22 09:31:45;;;;;;;11.52;10.45;;;22.00;99.90;;;;;;5008514;28;20091;-38
2021/08/22 09:34:41;;;;;;;14.52;13.05;;;21.90;99.90;;;;;;5028532;28;20551;-39
2021/08/22 09:37:07;;;;;;;13.07;11.40;;;21.70;99.90;;;;;;5028465;28;20065;-40
2021/08/22 09:40:10;;;;;;;12.98;11.68;;;21.50;99.90;;;;;;5026285;28;20103;-38
2021/08/22 09:42:54;;;;;;;;;;;21.50;99.90;;;;;;5028195;28;20029;-40
2021/08/22 09:45:57;;;;;;;11.80;10.60;;;21.60;99.90;;;;;;5028730;28;19959;-42
2021/08/22 09:48:56;;;;;;;10.45;9.45;;;21.70;99.90;;;;;;5028438;28;20034;-41
2021/08/22 09:51:42;;;;;;;13.00;10.82;;;21.80;99.90;;;;;;5008952;28;20030;-42
2021/08/22 09:54:33;;;;;;;12.43;11.13;;;21.70;99.90;;;;;;5027358;28;20026;-43
2021/08/22 09:57:40;;;;;;;9.05;8.25;;;21.60;99.90;;;;;;5027571;28;20150;-42
2021/08/22 10:00:33;;;;;;;9.13;8.23;;;21.60;99.90;;;;;;5017363;28;20175;-38
2021/08/22 10:03:36;;;;;;;9.25;8.32;;;21.60;99.90;;;;;;5031543;28;20056;-41
2021/08/22 10:06:29;;;;;;;11.00;9.77;;;21.70;99.90;;;;;;5032701;28;20033;-39
2021/08/22 10:09:02;;;;;;;11.80;10.52;;;21.80;99.90;;;;;;5030763;28;20066;-42
2021/08/22 10:11:54;;;;;;;14.50;12.98;;;21.80;99.90;;;;;;5031931;28;20179;-41
2021/08/22 10:14:20;;;;;;;9.75;8.75;;;21.80;99.90;;;;;;5032257;28;20033;-40
2021/08/22 10:16:50;;;;;;;13.00;11.70;;;21.70;99.90;;;;;;5030867;28;20114;-41
2021/08/22 10:19:21;;;;;;;14.23;12.73;;;21.60;99.90;;;;;;5031667;28;20082;-40
2021/08/22 10:22:07;;;;;;;14.15;12.65;;;21.50;99.90;;;;;;5031105;28;20069;-36
2021/08/22 10:24:35;;;;;;;12.18;10.98;;;21.50;99.90;;;;;;5031355;28;20021;-43
2021/08/22 10:27:01;;;;;;;10.70;9.68;;;21.50;99.90;;;;;;5030885;28;20076;-43
2021/08/22 10:29:31;;;;;;;13.98;12.68;;;21.50;99.90;;;;;;5031952;28;20026;-40
2021/08/22 10:31:58;;;;;;;13.23;11.93;;;21.60;99.90;;;;;;5030818;28;20037;-38
2021/08/22 10:34:25;;;;;;;14.20;12.80;;;21.60;99.90;;;;;;5031323;28;20033;-36
2021/08/22 10:36:51;;;;;;;13.80;12.48;;;21.70;99.90;;;;;;5030894;28;20125;-41
2021/08/22 10:39:21;;;;;;;14.48;12.98;;;21.70;99.90;;;;;;5031467;28;20021;-42
2021/08/22 10:41:47;;;;;;;12.98;11.73;;;21.80;99.90;;;;;;5031100;28;20078;-38
2021/08/22 10:44:34;;;;;;;13.00;11.70;;;21.90;99.90;;;;;;5031383;28;20071;-39
2021/08/22 10:47:13;;;;;;;11.25;10.15;;;22.00;99.90;;;;;;5030626;28;20021;-39
2021/08/22 10:52:32;;;;;;;12.10;10.90;;;22.30;99.90;;;;;;5031655;28;20041;-41
2021/08/22 10:55:16;;;;;;;10.10;9.10;;;22.50;99.90;;;;;;5031141;28;20148;-40
2021/08/22 10:57:50;;;;;;;12.50;11.15;;;22.50;99.90;;;;;;5031123;28;20029;-37
2021/08/22 11:00:25;;;;;;;9.73;8.80;;;22.50;99.90;;;;;;5030739;28;20024;-36
2021/08/22 11:03:10;;;;;;;9.65;8.65;;;22.40;99.90;;;;;;5031183;28;20037;-37
2021/08/22 11:05:36;;;;;;;10.32;9.43;;;22.40;99.90;;;;;;5030590;28;20014;-40
2021/08/22 11:08:20;;;;;;;10.40;9.30;;;22.40;99.90;;;;;;5030918;28;20057;-41
2021/08/22 11:10:57;;;;;;;9.88;8.98;;;22.50;99.90;;;;;;5030043;28;20074;-36
2021/08/22 11:13:23;;;;;;;13.15;11.85;;;22.60;99.90;;;;;;5030586;28;20057;-40
2021/08/22 11:15:48;;;;;;;10.52;9.43;;;22.60;99.90;;;;;;5029830;28;20164;-41
2021/08/22 11:18:18;;;;;;;10.63;9.55;;;22.70;99.90;;;;;;5030484;28;20112;-40
2021/08/22 11:20:46;;;;;;;11.57;10.40;;;22.70;99.90;;;;;;5030269;28;20055;-39
2021/08/22 11:23:17;;;;;;;10.07;9.13;;;22.70;99.90;;;;;;5030705;28;20060;-39
2021/08/22 11:25:48;;;;;;;10.23;9.25;;;22.80;99.90;;;;;;5030417;28;20504;-38
2021/08/22 11:28:16;;;;;;;12.57;11.35;;;22.80;99.90;;;;;;5030349;28;20540;-40
2021/08/22 11:30:44;;;;;;;11.50;9.90;;;22.80;99.90;;;;;;5029953;28;20080;-41
2021/08/22 11:33:10;;;;;;;11.30;10.05;;;22.80;99.90;;;;;;5019204;28;20017;-38
2021/08/22 11:35:38;;;;;;;12.13;10.93;;;22.80;99.90;;;;;;5030218;28;20021;-36
2021/08/22 11:38:03;;;;;;;11.48;10.38;;;22.70;99.90;;;;;;5029544;28;20346;-40
2021/08/22 11:40:30;;;;;;;10.18;9.27;;;22.60;99.90;;;;;;5030128;28;20027;-38
2021/08/22 11:42:58;;;;;;;11.43;10.15;;;22.70;99.90;;;;;;5029402;28;20478;-39
2021/08/22 11:45:27;;;;;;;12.57;11.45;;;22.80;99.90;;;;;;5030766;28;20032;-38
2021/08/22 11:47:54;;;;;;;12.13;11.05;;;22.90;99.90;;;;;;5028761;28;20033;-38
2021/08/22 11:50:23;;;;;;;11.05;10.02;;;23.00;99.90;;;;;;5030360;28;20079;-41
2021/08/22 11:52:51;;;;;;;10.38;9.45;;;23.20;99.90;;;;;;5029534;28;20336;-40
2021/08/22 11:55:19;;;;;;;13.35;11.32;;;23.30;99.90;;;;;;5029377;28;20485;-41
2021/08/22 11:57:45;;;;;;;10.48;9.48;;;23.50;99.90;;;;;;5030889;28;20018;-40
2021/08/22 12:00:17;;;;;;;10.05;9.05;;;23.50;99.90;;;;;;5030124;28;20040;-39
2021/08/22 12:02:55;;;;;;;10.70;9.68;;;23.50;99.90;;;;;;5030008;28;20564;-39
2021/08/22 12:05:23;;;;;;;11.13;9.90;;;23.60;99.90;;;;;;5031441;28;20025;-40
2021/08/22 12:07:59;;;;;;;10.35;9.45;;;23.70;99.90;;;;;;5028964;28;20045;-40
2021/08/22 12:10:28;;;;;;;12.05;10.85;;;23.70;99.90;;;;;;5029115;28;20041;-40
2021/08/22 12:12:54;;;;;;;11.50;10.30;;;23.80;99.50;;;;;;5029047;28;20121;-38
2021/08/22 12:15:34;;;;;;;10.90;9.93;;;23.70;99.10;;;;;;5029157;28;20584;-40
2021/08/22 12:18:32;;;;;;;9.95;8.95;;;23.70;99.10;;;;;;5029081;28;20076;-39
2021/08/22 12:21:07;;;;;;;10.45;9.40;;;23.70;99.40;;;;;;5029315;28;20029;-38
2021/08/22 12:23:34;;;;;;;11.98;10.43;;;23.70;99.30;;;;;;5028587;28;20091;-36
2021/08/22 12:26:19;;;;;;;11.38;10.27;;;23.80;98.80;;;;;;5028170;28;20036;-41
2021/08/22 12:28:45;;;;;;;9.07;8.18;;;23.90;98.60;;;;;;5027981;28;20029;-39
2021/08/22 12:31:12;;;;;;;9.50;8.15;;;23.90;98.60;;;;;;5031144;28;20048;-41
2021/08/22 12:33:43;;;;;;;10.23;9.32;;;24.10;98.50;;;;;;5034327;28;20039;-41
2021/08/22 12:36:11;;;;;;;8.27;7.47;;;24.00;97.80;;;;;;5028832;28;20465;-41
2021/08/22 12:38:51;;;;;;;8.90;7.95;;;23.90;98.30;;;;;;5028739;28;20026;-38
2021/08/22 12:41:41;;;;;;;9.20;8.30;;;23.90;98.50;;;;;;5029074;28;20112;-38
2021/08/22 12:44:12;;;;;;;8.52;7.72;;;23.90;98.50;;;;;;5028291;28;20021;-36
2021/08/22 12:46:39;;;;;;;12.37;9.17;;;23.90;98.40;;;;;;5028365;28;20021;-41